
Distance (Route):
Temperature : -34.5°C
Humidity : 14.8%
Pressure : 0hPa| Receiver | Frames | First received | Last received |
|---|---|---|---|
| LZ4TU-5 | 94 | 2026-08-31 05:39:20 | 2026-08-31 06:50:27 |
| Receiver | Date | Latitude | Longitude | Direction | Speed | Altitude | Climb | Temperature | Humidity | Pressure | Voltage | Killtimer | Uptime | BKT | XDATA |
|---|---|---|---|---|---|---|---|---|---|---|---|---|---|---|---|
| LZ4TU-5 | 2026-08-31 06:50:27 | 43.09531 | 20.24326 | 129° | 37km/h | 9559m | -19.9m/s | -34.5°C | 14.8% | 0hPa | 0V | 00:00:00 | 00:00:00 | 00:00:00 | |
| LZ4TU-5 | 2026-08-31 06:50:23 | 43.09555 | 20.24285 | 131° | 40km/h | 9642m | -20.6m/s | -35.1°C | 15.0% | 0hPa | 0V | 00:00:00 | 00:00:00 | 00:00:00 | |
| LZ4TU-5 | 2026-08-31 06:49:00 | 43.10424 | 20.23431 | 159° | 66km/h | 11338m | -22.2m/s | -48.2°C | 33.3% | 0hPa | 0V | 00:00:00 | 00:00:00 | 00:00:00 | |
| LZ4TU-5 | 2026-08-31 06:48:55 | 43.10502 | 20.23390 | 160° | 66km/h | 11454m | -22.6m/s | -49.2°C | 34.5% | 0hPa | 0V | 00:00:00 | 00:00:00 | 00:00:00 | |
| LZ4TU-5 | 2026-08-31 06:47:33 | 43.11919 | 20.22656 | 154° | 49km/h | 13412m | -25.7m/s | -59.2°C | 5.2% | 0hPa | 0V | 00:00:00 | 00:00:00 | 00:00:00 | |
| LZ4TU-5 | 2026-08-31 06:47:28 | 43.11971 | 20.22614 | 144° | 47km/h | 13546m | -25.9m/s | -59.9°C | 4.3% | 0hPa | 0V | 00:00:00 | 00:00:00 | 00:00:00 | |
| LZ4TU-5 | 2026-08-31 06:46:12 | 43.12424 | 20.21617 | 118° | 31km/h | 15676m | -30.8m/s | -60.1°C | 0.0% | 0hPa | 0V | 00:00:00 | 00:00:00 | 00:00:00 | |
| LZ4TU-5 | 2026-08-31 06:46:08 | 43.12433 | 20.21578 | 94° | 27km/h | 15801m | -31.0m/s | -60.7°C | 0.0% | 0hPa | 0V | 00:00:00 | 00:00:00 | 00:00:00 | |
| LZ4TU-5 | 2026-08-31 06:44:47 | 43.12523 | 20.20900 | 140° | 4km/h | 18615m | -37.1m/s | -56.8°C | 0.0% | 0hPa | 0V | 00:00:00 | 00:00:00 | 00:00:00 | |
| LZ4TU-5 | 2026-08-31 06:44:42 | 43.12530 | 20.20901 | 202° | 7km/h | 18805m | -37.4m/s | -57.4°C | 0.0% | 0hPa | 0V | 00:00:00 | 00:00:00 | 00:00:00 | |
| LZ4TU-5 | 2026-08-31 06:43:20 | 43.12434 | 20.20944 | 295° | 4km/h | 22285m | -51.9m/s | -54.3°C | 0.0% | 0hPa | 0V | 00:00:00 | 00:00:00 | 00:00:00 | |
| LZ4TU-5 | 2026-08-31 06:43:16 | 43.12433 | 20.20951 | 296° | 13km/h | 22502m | -53.6m/s | -53.8°C | 0.0% | 0hPa | 0V | 00:00:00 | 00:00:00 | 00:00:00 | |
| LZ4TU-5 | 2026-08-31 06:43:01 | 43.12433 | 20.21018 | 265° | 20km/h | 23335m | -56.0m/s | -52.4°C | 0.0% | 0hPa | 0V | 00:00:00 | 00:00:00 | 00:00:00 | |
| LZ4TU-5 | 2026-08-31 06:41:33 | 43.12287 | 20.21256 | 44° | 11km/h | 28923m | -77.5m/s | -42.8°C | 0.9% | 0hPa | 0V | 00:00:00 | 00:00:00 | 00:00:00 | |
| LZ4TU-5 | 2026-08-31 06:41:28 | 43.12282 | 20.21250 | 9° | 4km/h | 29314m | -80.8m/s | -43.7°C | 1.4% | 0hPa | 0V | 00:00:00 | 00:00:00 | 00:00:00 | |
| LZ4TU-5 | 2026-08-31 06:39:57 | 43.12295 | 20.21909 | 223° | 20km/h | 31370m | 6.0m/s | -39.8°C | 2.0% | 0hPa | 0V | 00:00:00 | 00:00:00 | 00:00:00 | |
| LZ4TU-5 | 2026-08-31 06:39:52 | 43.12310 | 20.21906 | 205° | 13km/h | 31332m | 8.8m/s | -39.8°C | 1.9% | 0hPa | 0V | 00:00:00 | 00:00:00 | 00:00:00 | |
| LZ4TU-5 | 2026-08-31 06:38:31 | 43.12717 | 20.22021 | 95° | 15km/h | 30736m | 6.1m/s | -40.9°C | 1.8% | 0hPa | 0V | 00:00:00 | 00:00:00 | 00:00:00 | |
| LZ4TU-5 | 2026-08-31 06:38:27 | 43.12720 | 20.22028 | 253° | 29km/h | 30706m | 7.9m/s | -41.0°C | 1.8% | 0hPa | 0V | 00:00:00 | 00:00:00 | 00:00:00 | |
| LZ4TU-5 | 2026-08-31 06:37:12 | 43.12695 | 20.22160 | 14° | 13km/h | 30155m | 5.8m/s | -42.0°C | 1.5% | 0hPa | 0V | 00:00:00 | 00:00:00 | 00:00:00 | |
| LZ4TU-5 | 2026-08-31 06:37:07 | 43.12694 | 20.22141 | 57° | 16km/h | 30123m | 6.7m/s | -42.2°C | 1.5% | 0hPa | 0V | 00:00:00 | 00:00:00 | 00:00:00 | |
| LZ4TU-5 | 2026-08-31 06:35:42 | 43.12482 | 20.22050 | 344° | 31km/h | 29527m | 6.1m/s | -45.9°C | 2.0% | 0hPa | 0V | 00:00:00 | 00:00:00 | 00:00:00 | |
| LZ4TU-5 | 2026-08-31 06:35:38 | 43.12474 | 20.22070 | 217° | 18km/h | 29499m | 6.0m/s | -45.8°C | 2.0% | 0hPa | 0V | 00:00:00 | 00:00:00 | 00:00:00 | |
| LZ4TU-5 | 2026-08-31 06:34:17 | 43.12310 | 20.21903 | 58° | 11km/h | 28927m | 7.4m/s | -43.6°C | 1.5% | 0hPa | 0V | 00:00:00 | 00:00:00 | 00:00:00 | |
| LZ4TU-5 | 2026-08-31 06:34:12 | 43.12301 | 20.21901 | 24° | 13km/h | 28891m | 8.4m/s | -43.5°C | 1.4% | 0hPa | 0V | 00:00:00 | 00:00:00 | 00:00:00 | |
| LZ4TU-5 | 2026-08-31 06:32:48 | 43.12299 | 20.21933 | 71° | 27km/h | 28298m | 5.8m/s | -45.7°C | 1.4% | 0hPa | 0V | 00:00:00 | 00:00:00 | 00:00:00 | |
| LZ4TU-5 | 2026-08-31 06:32:43 | 43.12288 | 20.21919 | 0° | 0km/h | 28267m | 7.2m/s | -45.9°C | 1.5% | 0hPa | 0V | 00:00:00 | 00:00:00 | 00:00:00 | |
| LZ4TU-5 | 2026-08-31 06:31:19 | 43.12144 | 20.21916 | 348° | 16km/h | 27702m | 7.2m/s | -45.0°C | 1.3% | 0hPa | 0V | 00:00:00 | 00:00:00 | 00:00:00 | |
| LZ4TU-5 | 2026-08-31 06:31:14 | 43.12127 | 20.21904 | 89° | 4km/h | 27668m | 7.5m/s | -45.2°C | 1.4% | 0hPa | 0V | 00:00:00 | 00:00:00 | 00:00:00 | |
| LZ4TU-5 | 2026-08-31 06:29:51 | 43.11830 | 20.21791 | 4° | 26km/h | 27092m | 8.0m/s | -45.9°C | 1.2% | 0hPa | 0V | 00:00:00 | 00:00:00 | 00:00:00 | |
| LZ4TU-5 | 2026-08-31 06:29:47 | 43.11812 | 20.21782 | 219° | 4km/h | 27065m | 6.7m/s | -46.1°C | 1.2% | 0hPa | 0V | 00:00:00 | 00:00:00 | 00:00:00 | |
| LZ4TU-5 | 2026-08-31 06:28:25 | 43.11732 | 20.21764 | 5° | 24km/h | 26507m | 5.8m/s | -46.6°C | 0.9% | 0hPa | 0V | 00:00:00 | 00:00:00 | 00:00:00 | |
| LZ4TU-5 | 2026-08-31 06:28:21 | 43.11723 | 20.21765 | 76° | 7km/h | 26482m | 4.9m/s | -46.9°C | 0.9% | 0hPa | 0V | 00:00:00 | 00:00:00 | 00:00:00 | |
| LZ4TU-5 | 2026-08-31 06:27:00 | 43.11396 | 20.21988 | 343° | 16km/h | 25955m | 5.5m/s | -48.8°C | 1.0% | 0hPa | 0V | 00:00:00 | 00:00:00 | 00:00:00 | |
| LZ4TU-5 | 2026-08-31 06:26:56 | 43.11373 | 20.22013 | 324° | 40km/h | 25928m | 7.3m/s | -48.9°C | 1.0% | 0hPa | 0V | 00:00:00 | 00:00:00 | 00:00:00 | |
| LZ4TU-5 | 2026-08-31 06:25:33 | 43.11060 | 20.22449 | 307° | 11km/h | 25391m | 6.8m/s | -49.7°C | 1.0% | 0hPa | 0V | 00:00:00 | 00:00:00 | 00:00:00 | |
| LZ4TU-5 | 2026-08-31 06:25:28 | 43.11055 | 20.22464 | 236° | 7km/h | 25360m | 5.8m/s | -49.6°C | 1.0% | 0hPa | 0V | 00:00:00 | 00:00:00 | 00:00:00 | |
| LZ4TU-5 | 2026-08-31 06:24:06 | 43.10928 | 20.22735 | 276° | 22km/h | 24817m | 5.5m/s | -50.3°C | 0.9% | 0hPa | 0V | 00:00:00 | 00:00:00 | 00:00:00 | |
| LZ4TU-5 | 2026-08-31 06:24:01 | 43.10913 | 20.22764 | 323° | 22km/h | 24783m | 7.3m/s | -50.4°C | 0.9% | 0hPa | 0V | 00:00:00 | 00:00:00 | 00:00:00 | |
| LZ4TU-5 | 2026-08-31 06:22:39 | 43.10779 | 20.23254 | 256° | 24km/h | 24264m | 3.7m/s | -51.4°C | 0.7% | 0hPa | 0V | 00:00:00 | 00:00:00 | 00:00:00 | |
| LZ4TU-5 | 2026-08-31 06:22:35 | 43.10786 | 20.23291 | 249° | 31km/h | 24237m | 7.1m/s | -51.6°C | 0.8% | 0hPa | 0V | 00:00:00 | 00:00:00 | 00:00:00 | |
| LZ4TU-5 | 2026-08-31 06:21:05 | 43.11003 | 20.23819 | 249° | 22km/h | 23667m | 7.9m/s | -52.4°C | 0.8% | 0hPa | 0V | 00:00:00 | 00:00:00 | 00:00:00 | |
| LZ4TU-5 | 2026-08-31 06:21:00 | 43.11016 | 20.23833 | 307° | 7km/h | 23634m | 7.2m/s | -52.4°C | 0.9% | 0hPa | 0V | 00:00:00 | 00:00:00 | 00:00:00 | |
| LZ4TU-5 | 2026-08-31 06:19:39 | 43.11032 | 20.24253 | 342° | 20km/h | 23118m | 7.3m/s | -52.6°C | 0.7% | 0hPa | 0V | 00:00:00 | 00:00:00 | 00:00:00 | |
| LZ4TU-5 | 2026-08-31 06:19:34 | 43.11030 | 20.24271 | 244° | 18km/h | 23085m | 6.1m/s | -52.6°C | 0.7% | 0hPa | 0V | 00:00:00 | 00:00:00 | 00:00:00 | |
| LZ4TU-5 | 2026-08-31 06:18:12 | 43.11003 | 20.24449 | 247° | 22km/h | 22565m | 9.2m/s | -53.5°C | 0.3% | 0hPa | 0V | 00:00:00 | 00:00:00 | 00:00:00 | |
| LZ4TU-5 | 2026-08-31 06:18:08 | 43.10998 | 20.24473 | 338° | 31km/h | 22544m | 6.5m/s | -53.8°C | 0% | 0hPa | 0V | 00:00:00 | 00:00:00 | 00:00:00 | |
| LZ4TU-5 | 2026-08-31 06:16:46 | 43.10810 | 20.24666 | 297° | 27km/h | 22032m | 7.5m/s | -55.6°C | 0.5% | 0hPa | 0V | 00:00:00 | 00:00:00 | 00:00:00 | |
| LZ4TU-5 | 2026-08-31 06:16:41 | 43.10777 | 20.24708 | 314° | 38km/h | 22002m | 5.7m/s | -55.8°C | 0.6% | 0hPa | 0V | 00:00:00 | 00:00:00 | 00:00:00 | |
| LZ4TU-5 | 2026-08-31 06:15:17 | 43.10891 | 20.25146 | 314° | 18km/h | 21494m | 6.0m/s | -56.1°C | 0.7% | 0hPa | 0V | 00:00:00 | 00:00:00 | 00:00:00 | |
| LZ4TU-5 | 2026-08-31 06:15:12 | 43.10877 | 20.25173 | 294° | 16km/h | 21464m | 6.1m/s | -56.1°C | 0.8% | 0hPa | 0V | 00:00:00 | 00:00:00 | 00:00:00 | |
| LZ4TU-5 | 2026-08-31 06:13:46 | 43.10935 | 20.25338 | 252° | 11km/h | 20970m | 5.3m/s | -55.8°C | 0.4% | 0hPa | 0V | 00:00:00 | 00:00:00 | 00:00:00 | |
| LZ4TU-5 | 2026-08-31 06:12:23 | 43.10886 | 20.25349 | 28° | 13km/h | 20478m | 7.0m/s | -56.1°C | 0.5% | 0hPa | 0V | 00:00:00 | 00:00:00 | 00:00:00 | |
| LZ4TU-5 | 2026-08-31 06:12:18 | 43.10867 | 20.25341 | 319° | 13km/h | 20449m | 5.4m/s | -56.1°C | 0.5% | 0hPa | 0V | 00:00:00 | 00:00:00 | 00:00:00 | |
| LZ4TU-5 | 2026-08-31 06:10:53 | 43.10868 | 20.25338 | 39° | 9km/h | 19934m | 5.0m/s | -58.0°C | 0.8% | 0hPa | 0V | 00:00:00 | 00:00:00 | 00:00:00 | |
| LZ4TU-5 | 2026-08-31 06:09:23 | 43.10681 | 20.25369 | 86° | 15km/h | 19418m | 3.8m/s | -57.0°C | 0.9% | 0hPa | 0V | 00:00:00 | 00:00:00 | 00:00:00 | |
| LZ4TU-5 | 2026-08-31 06:09:18 | 43.10664 | 20.25347 | 19° | 22km/h | 19388m | 5.8m/s | -56.9°C | 0.8% | 0hPa | 0V | 00:00:00 | 00:00:00 | 00:00:00 | |
| LZ4TU-5 | 2026-08-31 06:07:57 | 43.10549 | 20.25117 | 148° | 16km/h | 18941m | 5.3m/s | -57.3°C | 1.0% | 0hPa | 0V | 00:00:00 | 00:00:00 | 00:00:00 | |
| LZ4TU-5 | 2026-08-31 06:07:52 | 43.10553 | 20.25119 | 314° | 5km/h | 18913m | 5.1m/s | -57.5°C | 1.1% | 0hPa | 0V | 00:00:00 | 00:00:00 | 00:00:00 | |
| LZ4TU-5 | 2026-08-31 06:06:21 | 43.10697 | 20.24874 | 120° | 22km/h | 18397m | 5.1m/s | -58.2°C | 1.0% | 0hPa | 0V | 00:00:00 | 00:00:00 | 00:00:00 | |
| LZ4TU-5 | 2026-08-31 06:06:16 | 43.10692 | 20.24851 | 42° | 15km/h | 18368m | 4.8m/s | -58.3°C | 1.0% | 0hPa | 0V | 00:00:00 | 00:00:00 | 00:00:00 | |
| LZ4TU-5 | 2026-08-31 06:04:53 | 43.10619 | 20.24325 | 47° | 5km/h | 17898m | 6.0m/s | -60.0°C | 1.5% | 0hPa | 0V | 00:00:00 | 00:00:00 | 00:00:00 | |
| LZ4TU-5 | 2026-08-31 06:04:48 | 43.10609 | 20.24305 | 71° | 16km/h | 17868m | 6.2m/s | -59.9°C | 1.5% | 0hPa | 0V | 00:00:00 | 00:00:00 | 00:00:00 | |
| LZ4TU-5 | 2026-08-31 06:03:25 | 43.10772 | 20.23972 | 128° | 38km/h | 17374m | 4.5m/s | -59.1°C | 1.8% | 0hPa | 0V | 00:00:00 | 00:00:00 | 00:00:00 | |
| LZ4TU-5 | 2026-08-31 06:03:20 | 43.10803 | 20.23914 | 124° | 38km/h | 17348m | 5.1m/s | -59.1°C | 1.8% | 0hPa | 0V | 00:00:00 | 00:00:00 | 00:00:00 | |
| LZ4TU-5 | 2026-08-31 06:01:55 | 43.11101 | 20.23248 | 118° | 27km/h | 16889m | 6.4m/s | -60.3°C | 2.4% | 0hPa | 0V | 00:00:00 | 00:00:00 | 00:00:00 | |
| LZ4TU-5 | 2026-08-31 06:01:50 | 43.11114 | 20.23212 | 152° | 20km/h | 16863m | 5.4m/s | -60.2°C | 2.5% | 0hPa | 0V | 00:00:00 | 00:00:00 | 00:00:00 | |
| LZ4TU-5 | 2026-08-31 06:00:17 | 43.11359 | 20.22086 | 85° | 58km/h | 16371m | 5.1m/s | -60.8°C | 3.2% | 0hPa | 0V | 00:00:00 | 00:00:00 | 00:00:00 | |
| LZ4TU-5 | 2026-08-31 06:00:12 | 43.11354 | 20.21997 | 83° | 37km/h | 16342m | 5.7m/s | -60.9°C | 3.4% | 0hPa | 0V | 00:00:00 | 00:00:00 | 00:00:00 | |
| LZ4TU-5 | 2026-08-31 05:58:48 | 43.11087 | 20.21129 | 7° | 27km/h | 15874m | 6.6m/s | -61.0°C | 4.0% | 0hPa | 0V | 00:00:00 | 00:00:00 | 00:00:00 | |
| LZ4TU-5 | 2026-08-31 05:58:43 | 43.11051 | 20.21101 | 63° | 27km/h | 15845m | 6.1m/s | -60.9°C | 4.1% | 0hPa | 0V | 00:00:00 | 00:00:00 | 00:00:00 | |
| LZ4TU-5 | 2026-08-31 05:57:13 | 43.11435 | 20.20256 | 130° | 35km/h | 15258m | 6.5m/s | -60.1°C | 5.9% | 0hPa | 0V | 00:00:00 | 00:00:00 | 00:00:00 | |
| LZ4TU-5 | 2026-08-31 05:57:08 | 43.11475 | 20.20197 | 133° | 55km/h | 15229m | 4.1m/s | -60.0°C | 5.9% | 0hPa | 0V | 00:00:00 | 00:00:00 | 00:00:00 | |
| LZ4TU-5 | 2026-08-31 05:55:45 | 43.12023 | 20.18795 | 107° | 68km/h | 14761m | 5.7m/s | -59.0°C | 7.5% | 0hPa | 0V | 00:00:00 | 00:00:00 | 00:00:00 | |
| LZ4TU-5 | 2026-08-31 05:54:11 | 43.12227 | 20.17368 | 109° | 47km/h | 14229m | 6.1m/s | -58.0°C | 11.2% | 0hPa | 0V | 00:00:00 | 00:00:00 | 00:00:00 | |
| LZ4TU-5 | 2026-08-31 05:52:49 | 43.12766 | 20.16366 | 123° | 73km/h | 13756m | 3.4m/s | -59.2°C | 14.8% | 0hPa | 0V | 00:00:00 | 00:00:00 | 00:00:00 | |
| LZ4TU-5 | 2026-08-31 05:52:44 | 43.12822 | 20.16278 | 147° | 66km/h | 13732m | 4.3m/s | -59.2°C | 14.9% | 0hPa | 0V | 00:00:00 | 00:00:00 | 00:00:00 | |
| LZ4TU-5 | 2026-08-31 05:51:12 | 43.13884 | 20.15043 | 165° | 60km/h | 13245m | 5.9m/s | -59.2°C | 20.5% | 0hPa | 0V | 00:00:00 | 00:00:00 | 00:00:00 | |
| LZ4TU-5 | 2026-08-31 05:51:08 | 43.13940 | 20.15030 | 163° | 51km/h | 13227m | 5.5m/s | -59.1°C | 20.9% | 0hPa | 0V | 00:00:00 | 00:00:00 | 00:00:00 | |
| LZ4TU-5 | 2026-08-31 05:49:48 | 43.15239 | 20.14420 | 162° | 93km/h | 12731m | 5.7m/s | -58.1°C | 32.5% | 0hPa | 0V | 00:00:00 | 00:00:00 | 00:00:00 | |
| LZ4TU-5 | 2026-08-31 05:49:43 | 43.15336 | 20.14368 | 159° | 82km/h | 12703m | 5.9m/s | -58.1°C | 33.0% | 0hPa | 0V | 00:00:00 | 00:00:00 | 00:00:00 | |
| LZ4TU-5 | 2026-08-31 05:48:20 | 43.16941 | 20.13589 | 150° | 77km/h | 12232m | 7.1m/s | -56.4°C | 32.8% | 0hPa | 0V | 00:00:00 | 00:00:00 | 00:00:00 | |
| LZ4TU-5 | 2026-08-31 05:48:15 | 43.17034 | 20.13537 | 167° | 75km/h | 12198m | 6.9m/s | -56.1°C | 32.4% | 0hPa | 0V | 00:00:00 | 00:00:00 | 00:00:00 | |
| LZ4TU-5 | 2026-08-31 05:46:44 | 43.18573 | 20.12849 | 178° | 62km/h | 11678m | 5.3m/s | -52.1°C | 28.4% | 0hPa | 0V | 00:00:00 | 00:00:00 | 00:00:00 | |
| LZ4TU-5 | 2026-08-31 05:46:40 | 43.18641 | 20.12832 | 165° | 78km/h | 11659m | 6.1m/s | -52.0°C | 28.1% | 0hPa | 0V | 00:00:00 | 00:00:00 | 00:00:00 | |
| LZ4TU-5 | 2026-08-31 05:45:11 | 43.20112 | 20.12066 | 157° | 77km/h | 11162m | 5.6m/s | -48.9°C | 29.1% | 0hPa | 0V | 00:00:00 | 00:00:00 | 00:00:00 | |
| LZ4TU-5 | 2026-08-31 05:45:06 | 43.20198 | 20.12023 | 157° | 62km/h | 11137m | 4.1m/s | -48.7°C | 28.6% | 0hPa | 0V | 00:00:00 | 00:00:00 | 00:00:00 | |
| LZ4TU-5 | 2026-08-31 05:43:42 | 43.21277 | 20.11222 | 149° | 47km/h | 10663m | 5.7m/s | -45.1°C | 21.3% | 0hPa | 0V | 00:00:00 | 00:00:00 | 00:00:00 | |
| LZ4TU-5 | 2026-08-31 05:43:38 | 43.21327 | 20.11168 | 141° | 68km/h | 10642m | 5.4m/s | -44.9°C | 20.6% | 0hPa | 0V | 00:00:00 | 00:00:00 | 00:00:00 | |
| LZ4TU-5 | 2026-08-31 05:42:16 | 43.22029 | 20.10267 | 121° | 42km/h | 10178m | 5.5m/s | -41.0°C | 16.3% | 0hPa | 0V | 00:00:00 | 00:00:00 | 00:00:00 | |
| LZ4TU-5 | 2026-08-31 05:42:12 | 43.22055 | 20.10233 | 153° | 27km/h | 10151m | 6.2m/s | -40.8°C | 16.0% | 0hPa | 0V | 00:00:00 | 00:00:00 | 00:00:00 | |
| LZ4TU-5 | 2026-08-31 05:40:48 | 43.22550 | 20.09349 | 127° | 29km/h | 9701m | 6.0m/s | -36.8°C | 14.9% | 0hPa | 0V | 00:00:00 | 00:00:00 | 00:00:00 | |
| LZ4TU-5 | 2026-08-31 05:40:44 | 43.22566 | 20.09297 | 109° | 53km/h | 9678m | 3.2m/s | -36.6°C | 14.6% | 0hPa | 0V | 00:00:00 | 00:00:00 | 00:00:00 | |
| LZ4TU-5 | 2026-08-31 05:39:20 | 43.23028 | 20.08515 | 142° | 42km/h | 9217m | 6.4m/s | -32.6°C | 13.7% | 0hPa | 0V | 00:00:00 | 00:00:00 | 00:00:00 |